sensor_id;sensor_type;location;lat;lon;timestamp;P1;durP1;ratioP1;P2;durP2;ratioP2
69369;SDS011;56530;42.640;23.372;2024-01-07T00:02:11;6.20;;;5.40;;
69369;SDS011;56530;42.640;23.372;2024-01-07T00:04:36;6.83;;;5.30;;
69369;SDS011;56530;42.640;23.372;2024-01-07T00:07:02;5.43;;;4.87;;
69369;SDS011;56530;42.640;23.372;2024-01-07T00:09:28;4.87;;;4.40;;
69369;SDS011;56530;42.640;23.372;2024-01-07T00:11:54;5.60;;;4.78;;
69369;SDS011;56530;42.640;23.372;2024-01-07T00:14:19;5.83;;;5.33;;
69369;SDS011;56530;42.640;23.372;2024-01-07T00:16:45;6.67;;;5.57;;
69369;SDS011;56530;42.640;23.372;2024-01-07T00:19:10;7.47;;;6.67;;
69369;SDS011;56530;42.640;23.372;2024-01-07T00:21:35;6.67;;;6.07;;
69369;SDS011;56530;42.640;23.372;2024-01-07T00:24:01;5.80;;;5.20;;
69369;SDS011;56530;42.640;23.372;2024-01-07T00:26:26;5.87;;;5.27;;
69369;SDS011;56530;42.640;23.372;2024-01-07T00:28:51;6.60;;;5.40;;
69369;SDS011;56530;42.640;23.372;2024-01-07T00:31:18;5.78;;;5.10;;
69369;SDS011;56530;42.640;23.372;2024-01-07T00:33:43;5.77;;;5.20;;
69369;SDS011;56530;42.640;23.372;2024-01-07T00:36:09;6.63;;;5.75;;
69369;SDS011;56530;42.640;23.372;2024-01-07T00:38:34;7.07;;;5.90;;
69369;SDS011;56530;42.640;23.372;2024-01-07T00:40:59;6.10;;;5.50;;
69369;SDS011;56530;42.640;23.372;2024-01-07T00:43:25;6.73;;;5.73;;
69369;SDS011;56530;42.640;23.372;2024-01-07T00:45:50;7.57;;;6.32;;
69369;SDS011;56530;42.640;23.372;2024-01-07T00:48:15;7.37;;;6.30;;
69369;SDS011;56530;42.640;23.372;2024-01-07T00:50:41;9.83;;;8.53;;
69369;SDS011;56530;42.640;23.372;2024-01-07T00:53:07;17.45;;;15.43;;
69369;SDS011;56530;42.640;23.372;2024-01-07T00:55:33;8.25;;;7.45;;
69369;SDS011;56530;42.640;23.372;2024-01-07T00:58:00;7.35;;;6.22;;
69369;SDS011;56530;42.640;23.372;2024-01-07T01:00:26;7.87;;;6.40;;
69369;SDS011;56530;42.640;23.372;2024-01-07T01:02:52;8.02;;;7.20;;
69369;SDS011;56530;42.640;23.372;2024-01-07T01:05:18;8.40;;;7.50;;
69369;SDS011;56530;42.640;23.372;2024-01-07T01:07:43;11.67;;;8.93;;
69369;SDS011;56530;42.640;23.372;2024-01-07T01:10:08;14.95;;;10.35;;
69369;SDS011;56530;42.640;23.372;2024-01-07T01:12:34;12.53;;;10.33;;
69369;SDS011;56530;42.640;23.372;2024-01-07T01:15:00;12.18;;;9.70;;
69369;SDS011;56530;42.640;23.372;2024-01-07T01:17:25;12.50;;;10.83;;
69369;SDS011;56530;42.640;23.372;2024-01-07T01:19:50;14.23;;;10.57;;
69369;SDS011;56530;42.640;23.372;2024-01-07T01:22:16;13.03;;;10.83;;
69369;SDS011;56530;42.640;23.372;2024-01-07T01:24:41;13.93;;;11.07;;
69369;SDS011;56530;42.640;23.372;2024-01-07T01:27:08;13.10;;;11.47;;
69369;SDS011;56530;42.640;23.372;2024-01-07T01:29:33;14.43;;;11.35;;
69369;SDS011;56530;42.640;23.372;2024-01-07T01:31:59;13.87;;;10.97;;
69369;SDS011;56530;42.640;23.372;2024-01-07T01:34:24;10.63;;;7.80;;
69369;SDS011;56530;42.640;23.372;2024-01-07T01:36:50;10.18;;;8.63;;
69369;SDS011;56530;42.640;23.372;2024-01-07T01:39:15;12.40;;;10.37;;
69369;SDS011;56530;42.640;23.372;2024-01-07T01:41:41;14.03;;;10.57;;
69369;SDS011;56530;42.640;23.372;2024-01-07T01:44:06;16.43;;;12.87;;
69369;SDS011;56530;42.640;23.372;2024-01-07T01:46:31;11.38;;;9.23;;
69369;SDS011;56530;42.640;23.372;2024-01-07T01:48:57;11.67;;;8.80;;
69369;SDS011;56530;42.640;23.372;2024-01-07T01:51:23;11.55;;;7.78;;
69369;SDS011;56530;42.640;23.372;2024-01-07T01:53:48;9.60;;;7.90;;
69369;SDS011;56530;42.640;23.372;2024-01-07T01:56:16;7.13;;;5.72;;
69369;SDS011;56530;42.640;23.372;2024-01-07T01:58:42;7.20;;;5.17;;
69369;SDS011;56530;42.640;23.372;2024-01-07T02:01:07;5.32;;;4.10;;
69369;SDS011;56530;42.640;23.372;2024-01-07T02:03:33;4.70;;;3.90;;
69369;SDS011;56530;42.640;23.372;2024-01-07T02:05:58;5.10;;;4.00;;
69369;SDS011;56530;42.640;23.372;2024-01-07T02:08:23;4.57;;;3.27;;
69369;SDS011;56530;42.640;23.372;2024-01-07T02:10:50;4.53;;;3.35;;
69369;SDS011;56530;42.640;23.372;2024-01-07T02:13:15;4.77;;;3.60;;
69369;SDS011;56530;42.640;23.372;2024-01-07T02:15:40;4.00;;;3.60;;
69369;SDS011;56530;42.640;23.372;2024-01-07T02:18:06;4.40;;;3.80;;
69369;SDS011;56530;42.640;23.372;2024-01-07T02:20:31;3.67;;;3.38;;
69369;SDS011;56530;42.640;23.372;2024-01-07T02:22:56;4.00;;;3.40;;
69369;SDS011;56530;42.640;23.372;2024-01-07T02:25:24;4.70;;;3.58;;
69369;SDS011;56530;42.640;23.372;2024-01-07T02:27:50;5.00;;;3.60;;
69369;SDS011;56530;42.640;23.372;2024-01-07T02:30:16;4.55;;;3.40;;
69369;SDS011;56530;42.640;23.372;2024-01-07T02:32:42;4.65;;;3.30;;
69369;SDS011;56530;42.640;23.372;2024-01-07T02:35:07;4.87;;;3.33;;
69369;SDS011;56530;42.640;23.372;2024-01-07T02:37:33;3.50;;;3.20;;
69369;SDS011;56530;42.640;23.372;2024-01-07T02:39:59;6.03;;;3.55;;
69369;SDS011;56530;42.640;23.372;2024-01-07T02:42:24;3.40;;;3.10;;
69369;SDS011;56530;42.640;23.372;2024-01-07T02:44:49;5.57;;;3.50;;
69369;SDS011;56530;42.640;23.372;2024-01-07T02:47:15;5.43;;;3.63;;
69369;SDS011;56530;42.640;23.372;2024-01-07T02:49:40;5.47;;;3.23;;
69369;SDS011;56530;42.640;23.372;2024-01-07T02:52:06;3.53;;;3.23;;
69369;SDS011;56530;42.640;23.372;2024-01-07T02:54:31;3.72;;;3.42;;
69369;SDS011;56530;42.640;23.372;2024-01-07T02:56:56;4.67;;;3.83;;
69369;SDS011;56530;42.640;23.372;2024-01-07T02:59:22;5.27;;;3.73;;
69369;SDS011;56530;42.640;23.372;2024-01-07T03:01:47;5.43;;;4.17;;
69369;SDS011;56530;42.640;23.372;2024-01-07T03:04:16;4.60;;;4.10;;
69369;SDS011;56530;42.640;23.372;2024-01-07T03:06:41;5.97;;;3.92;;
69369;SDS011;56530;42.640;23.372;2024-01-07T03:09:07;5.57;;;4.53;;
69369;SDS011;56530;42.640;23.372;2024-01-07T03:11:33;6.00;;;5.00;;
69369;SDS011;56530;42.640;23.372;2024-01-07T03:13:58;5.55;;;4.30;;
69369;SDS011;56530;42.640;23.372;2024-01-07T03:16:24;6.53;;;4.60;;
69369;SDS011;56530;42.640;23.372;2024-01-07T03:18:50;6.40;;;5.28;;
69369;SDS011;56530;42.640;23.372;2024-01-07T03:21:16;6.15;;;5.32;;
69369;SDS011;56530;42.640;23.372;2024-01-07T03:23:45;6.00;;;4.72;;
69369;SDS011;56530;42.640;23.372;2024-01-07T03:26:11;6.30;;;4.13;;
69369;SDS011;56530;42.640;23.372;2024-01-07T03:28:37;4.82;;;4.25;;
69369;SDS011;56530;42.640;23.372;2024-01-07T03:31:11;4.40;;;4.00;;
69369;SDS011;56530;42.640;23.372;2024-01-07T03:33:39;8.40;;;5.03;;
69369;SDS011;56530;42.640;23.372;2024-01-07T03:36:08;6.53;;;4.88;;
69369;SDS011;56530;42.640;23.372;2024-01-07T03:38:38;5.28;;;4.38;;
69369;SDS011;56530;42.640;23.372;2024-01-07T03:41:04;6.68;;;4.38;;
69369;SDS011;56530;42.640;23.372;2024-01-07T03:43:30;5.77;;;4.90;;
69369;SDS011;56530;42.640;23.372;2024-01-07T03:45:55;4.80;;;4.30;;
69369;SDS011;56530;42.640;23.372;2024-01-07T03:48:21;5.17;;;4.03;;
69369;SDS011;56530;42.640;23.372;2024-01-07T03:50:46;5.15;;;4.72;;
69369;SDS011;56530;42.640;23.372;2024-01-07T03:53:12;5.27;;;3.70;;
69369;SDS011;56530;42.640;23.372;2024-01-07T03:55:37;4.03;;;3.67;;
69369;SDS011;56530;42.640;23.372;2024-01-07T03:58:03;4.13;;;3.73;;
69369;SDS011;56530;42.640;23.372;2024-01-07T04:00:29;4.65;;;4.20;;
69369;SDS011;56530;42.640;23.372;2024-01-07T04:02:55;3.63;;;3.07;;
69369;SDS011;56530;42.640;23.372;2024-01-07T04:05:20;3.00;;;2.70;;
69369;SDS011;56530;42.640;23.372;2024-01-07T04:07:45;3.30;;;3.00;;
69369;SDS011;56530;42.640;23.372;2024-01-07T04:10:11;2.97;;;2.60;;
69369;SDS011;56530;42.640;23.372;2024-01-07T04:12:36;3.80;;;3.17;;
69369;SDS011;56530;42.640;23.372;2024-01-07T04:15:01;4.63;;;3.60;;
69369;SDS011;56530;42.640;23.372;2024-01-07T04:17:27;7.57;;;5.77;;
69369;SDS011;56530;42.640;23.372;2024-01-07T04:19:52;8.87;;;7.87;;
69369;SDS011;56530;42.640;23.372;2024-01-07T04:22:18;9.10;;;8.02;;
69369;SDS011;56530;42.640;23.372;2024-01-07T04:24:43;10.10;;;8.67;;
69369;SDS011;56530;42.640;23.372;2024-01-07T04:27:09;9.17;;;7.80;;
69369;SDS011;56530;42.640;23.372;2024-01-07T04:29:34;9.63;;;8.43;;
69369;SDS011;56530;42.640;23.372;2024-01-07T04:31:59;11.63;;;9.30;;
69369;SDS011;56530;42.640;23.372;2024-01-07T04:34:25;9.93;;;8.93;;
69369;SDS011;56530;42.640;23.372;2024-01-07T04:36:50;10.27;;;9.20;;
69369;SDS011;56530;42.640;23.372;2024-01-07T04:39:16;10.90;;;8.93;;
69369;SDS011;56530;42.640;23.372;2024-01-07T04:41:41;9.77;;;8.77;;
69369;SDS011;56530;42.640;23.372;2024-01-07T04:44:07;10.33;;;8.63;;
69369;SDS011;56530;42.640;23.372;2024-01-07T04:46:39;11.73;;;9.25;;
69369;SDS011;56530;42.640;23.372;2024-01-07T04:49:04;13.02;;;8.60;;
69369;SDS011;56530;42.640;23.372;2024-01-07T04:51:33;10.85;;;8.93;;
69369;SDS011;56530;42.640;23.372;2024-01-07T04:53:58;11.27;;;9.83;;
69369;SDS011;56530;42.640;23.372;2024-01-07T04:56:24;9.85;;;8.57;;
69369;SDS011;56530;42.640;23.372;2024-01-07T04:58:49;12.20;;;9.90;;
69369;SDS011;56530;42.640;23.372;2024-01-07T05:01:15;8.93;;;8.03;;
69369;SDS011;56530;42.640;23.372;2024-01-07T05:03:40;11.52;;;7.97;;
69369;SDS011;56530;42.640;23.372;2024-01-07T05:06:08;11.07;;;8.37;;
69369;SDS011;56530;42.640;23.372;2024-01-07T05:08:34;11.38;;;8.90;;
69369;SDS011;56530;42.640;23.372;2024-01-07T05:11:00;9.15;;;7.18;;
69369;SDS011;56530;42.640;23.372;2024-01-07T05:13:25;7.73;;;6.73;;
69369;SDS011;56530;42.640;23.372;2024-01-07T05:15:51;8.73;;;7.50;;
69369;SDS011;56530;42.640;23.372;2024-01-07T05:18:22;9.18;;;6.97;;
69369;SDS011;56530;42.640;23.372;2024-01-07T05:20:47;8.30;;;6.68;;
69369;SDS011;56530;42.640;23.372;2024-01-07T05:23:13;9.23;;;7.27;;
69369;SDS011;56530;42.640;23.372;2024-01-07T05:25:38;8.90;;;7.30;;
69369;SDS011;56530;42.640;23.372;2024-01-07T05:28:04;9.07;;;7.23;;
69369;SDS011;56530;42.640;23.372;2024-01-07T05:30:29;9.30;;;7.45;;
69369;SDS011;56530;42.640;23.372;2024-01-07T05:32:55;9.40;;;8.23;;
69369;SDS011;56530;42.640;23.372;2024-01-07T05:35:20;10.37;;;7.80;;
69369;SDS011;56530;42.640;23.372;2024-01-07T05:37:45;8.63;;;7.57;;
69369;SDS011;56530;42.640;23.372;2024-01-07T05:40:11;10.30;;;7.07;;
69369;SDS011;56530;42.640;23.372;2024-01-07T05:42:36;8.70;;;7.83;;
69369;SDS011;56530;42.640;23.372;2024-01-07T05:45:02;8.43;;;7.50;;
69369;SDS011;56530;42.640;23.372;2024-01-07T05:47:27;8.63;;;7.72;;
69369;SDS011;56530;42.640;23.372;2024-01-07T05:49:53;9.00;;;8.10;;
69369;SDS011;56530;42.640;23.372;2024-01-07T05:52:18;11.57;;;10.38;;
69369;SDS011;56530;42.640;23.372;2024-01-07T05:54:44;12.30;;;11.00;;
69369;SDS011;56530;42.640;23.372;2024-01-07T05:57:10;14.25;;;12.00;;
69369;SDS011;56530;42.640;23.372;2024-01-07T05:59:36;13.65;;;12.15;;
69369;SDS011;56530;42.640;23.372;2024-01-07T06:02:02;13.00;;;11.67;;
69369;SDS011;56530;42.640;23.372;2024-01-07T06:04:27;15.50;;;12.70;;
69369;SDS011;56530;42.640;23.372;2024-01-07T06:06:53;14.90;;;13.40;;
69369;SDS011;56530;42.640;23.372;2024-01-07T06:09:18;16.47;;;14.83;;
69369;SDS011;56530;42.640;23.372;2024-01-07T06:11:43;16.77;;;14.93;;
69369;SDS011;56530;42.640;23.372;2024-01-07T06:14:09;18.63;;;16.73;;
69369;SDS011;56530;42.640;23.372;2024-01-07T06:16:34;22.50;;;20.20;;
69369;SDS011;56530;42.640;23.372;2024-01-07T06:18:59;22.30;;;20.00;;
69369;SDS011;56530;42.640;23.372;2024-01-07T06:21:25;21.43;;;19.27;;
69369;SDS011;56530;42.640;23.372;2024-01-07T06:23:50;20.30;;;18.40;;
69369;SDS011;56530;42.640;23.372;2024-01-07T06:26:15;22.52;;;20.33;;
69369;SDS011;56530;42.640;23.372;2024-01-07T06:28:41;20.07;;;18.07;;
69369;SDS011;56530;42.640;23.372;2024-01-07T06:31:06;19.20;;;17.20;;
69369;SDS011;56530;42.640;23.372;2024-01-07T06:33:32;20.00;;;17.90;;
69369;SDS011;56530;42.640;23.372;2024-01-07T06:35:57;18.50;;;16.70;;
69369;SDS011;56530;42.640;23.372;2024-01-07T06:38:23;18.23;;;16.33;;
69369;SDS011;56530;42.640;23.372;2024-01-07T06:40:49;17.08;;;15.15;;
69369;SDS011;56530;42.640;23.372;2024-01-07T06:43:14;15.37;;;13.83;;
69369;SDS011;56530;42.640;23.372;2024-01-07T06:45:40;12.47;;;11.37;;
69369;SDS011;56530;42.640;23.372;2024-01-07T06:48:05;12.80;;;11.60;;
69369;SDS011;56530;42.640;23.372;2024-01-07T06:50:31;12.13;;;10.98;;
69369;SDS011;56530;42.640;23.372;2024-01-07T06:52:56;12.70;;;11.43;;
69369;SDS011;56530;42.640;23.372;2024-01-07T06:55:22;12.82;;;11.30;;
69369;SDS011;56530;42.640;23.372;2024-01-07T06:57:47;12.07;;;10.97;;
69369;SDS011;56530;42.640;23.372;2024-01-07T07:00:12;14.03;;;12.57;;
69369;SDS011;56530;42.640;23.372;2024-01-07T07:02:39;14.40;;;12.90;;
69369;SDS011;56530;42.640;23.372;2024-01-07T07:05:04;14.27;;;12.88;;
69369;SDS011;56530;42.640;23.372;2024-01-07T07:07:29;13.90;;;12.20;;
69369;SDS011;56530;42.640;23.372;2024-01-07T07:09:55;14.17;;;12.80;;
69369;SDS011;56530;42.640;23.372;2024-01-07T07:12:20;15.60;;;14.00;;
69369;SDS011;56530;42.640;23.372;2024-01-07T07:14:46;14.80;;;12.93;;
69369;SDS011;56530;42.640;23.372;2024-01-07T07:17:12;14.45;;;12.95;;
69369;SDS011;56530;42.640;23.372;2024-01-07T07:19:38;14.32;;;12.90;;
69369;SDS011;56530;42.640;23.372;2024-01-07T07:22:03;13.93;;;12.53;;
69369;SDS011;56530;42.640;23.372;2024-01-07T07:24:29;11.32;;;10.13;;
69369;SDS011;56530;42.640;23.372;2024-01-07T07:26:54;11.13;;;8.67;;
69369;SDS011;56530;42.640;23.372;2024-01-07T07:29:20;11.57;;;9.07;;
69369;SDS011;56530;42.640;23.372;2024-01-07T07:31:45;10.60;;;9.57;;
69369;SDS011;56530;42.640;23.372;2024-01-07T07:34:10;9.57;;;7.85;;
69369;SDS011;56530;42.640;23.372;2024-01-07T07:36:37;18.60;;;16.00;;
69369;SDS011;56530;42.640;23.372;2024-01-07T07:39:02;10.40;;;8.13;;
69369;SDS011;56530;42.640;23.372;2024-01-07T07:41:27;9.40;;;8.40;;
69369;SDS011;56530;42.640;23.372;2024-01-07T07:43:53;9.20;;;8.13;;
69369;SDS011;56530;42.640;23.372;2024-01-07T07:46:19;9.57;;;8.25;;
69369;SDS011;56530;42.640;23.372;2024-01-07T07:48:45;11.57;;;9.37;;
69369;SDS011;56530;42.640;23.372;2024-01-07T07:51:10;10.90;;;8.97;;
69369;SDS011;56530;42.640;23.372;2024-01-07T07:53:37;8.80;;;7.87;;
69369;SDS011;56530;42.640;23.372;2024-01-07T07:56:03;7.68;;;6.45;;
69369;SDS011;56530;42.640;23.372;2024-01-07T07:58:29;9.32;;;7.28;;
69369;SDS011;56530;42.640;23.372;2024-01-07T08:00:54;8.07;;;7.27;;
69369;SDS011;56530;42.640;23.372;2024-01-07T08:03:20;10.63;;;7.70;;
69369;SDS011;56530;42.640;23.372;2024-01-07T08:05:45;8.37;;;7.50;;
69369;SDS011;56530;42.640;23.372;2024-01-07T08:08:11;8.53;;;7.30;;
69369;SDS011;56530;42.640;23.372;2024-01-07T08:10:36;7.30;;;6.60;;
69369;SDS011;56530;42.640;23.372;2024-01-07T08:13:01;8.67;;;7.77;;
69369;SDS011;56530;42.640;23.372;2024-01-07T08:15:27;9.15;;;8.25;;
69369;SDS011;56530;42.640;23.372;2024-01-07T08:17:52;8.80;;;6.97;;
69369;SDS011;56530;42.640;23.372;2024-01-07T08:20:17;8.67;;;6.70;;
69369;SDS011;56530;42.640;23.372;2024-01-07T08:22:44;7.20;;;6.40;;
69369;SDS011;56530;42.640;23.372;2024-01-07T08:25:09;7.53;;;6.33;;
69369;SDS011;56530;42.640;23.372;2024-01-07T08:27:35;7.53;;;6.47;;
69369;SDS011;56530;42.640;23.372;2024-01-07T08:30:02;8.13;;;6.63;;
69369;SDS011;56530;42.640;23.372;2024-01-07T08:32:28;9.73;;;7.33;;
69369;SDS011;56530;42.640;23.372;2024-01-07T08:34:53;9.93;;;8.07;;
69369;SDS011;56530;42.640;23.372;2024-01-07T08:37:18;8.02;;;7.28;;
69369;SDS011;56530;42.640;23.372;2024-01-07T08:39:44;7.23;;;6.50;;
69369;SDS011;56530;42.640;23.372;2024-01-07T08:42:09;9.13;;;7.47;;
69369;SDS011;56530;42.640;23.372;2024-01-07T08:44:35;8.40;;;7.27;;
69369;SDS011;56530;42.640;23.372;2024-01-07T08:47:00;8.23;;;7.43;;
69369;SDS011;56530;42.640;23.372;2024-01-07T08:49:26;9.27;;;8.20;;
69369;SDS011;56530;42.640;23.372;2024-01-07T08:51:52;10.65;;;8.77;;
69369;SDS011;56530;42.640;23.372;2024-01-07T08:54:18;10.80;;;8.90;;
69369;SDS011;56530;42.640;23.372;2024-01-07T08:56:43;21.60;;;18.23;;
69369;SDS011;56530;42.640;23.372;2024-01-07T08:59:09;13.07;;;9.95;;
69369;SDS011;56530;42.640;23.372;2024-01-07T09:01:35;12.40;;;9.43;;
69369;SDS011;56530;42.640;23.372;2024-01-07T09:04:01;12.00;;;10.90;;
69369;SDS011;56530;42.640;23.372;2024-01-07T09:06:26;11.77;;;10.03;;
69369;SDS011;56530;42.640;23.372;2024-01-07T09:08:52;13.80;;;11.47;;
69369;SDS011;56530;42.640;23.372;2024-01-07T09:11:20;11.75;;;10.52;;
69369;SDS011;56530;42.640;23.372;2024-01-07T09:13:45;12.13;;;10.93;;
69369;SDS011;56530;42.640;23.372;2024-01-07T09:16:13;13.82;;;12.38;;
69369;SDS011;56530;42.640;23.372;2024-01-07T09:18:39;15.57;;;13.97;;
69369;SDS011;56530;42.640;23.372;2024-01-07T09:21:04;14.37;;;12.97;;
69369;SDS011;56530;42.640;23.372;2024-01-07T09:23:33;15.63;;;14.03;;
69369;SDS011;56530;42.640;23.372;2024-01-07T09:26:01;15.30;;;13.80;;
69369;SDS011;56530;42.640;23.372;2024-01-07T09:28:26;17.50;;;14.77;;
69369;SDS011;56530;42.640;23.372;2024-01-07T09:30:52;17.37;;;15.50;;
69369;SDS011;56530;42.640;23.372;2024-01-07T09:33:17;17.17;;;15.47;;
69369;SDS011;56530;42.640;23.372;2024-01-07T09:35:43;16.38;;;14.77;;
69369;SDS011;56530;42.640;23.372;2024-01-07T09:38:08;16.07;;;14.57;;
69369;SDS011;56530;42.640;23.372;2024-01-07T09:40:34;18.92;;;15.60;;
69369;SDS011;56530;42.640;23.372;2024-01-07T09:42:59;16.77;;;15.00;;
69369;SDS011;56530;42.640;23.372;2024-01-07T09:45:25;14.17;;;12.73;;
69369;SDS011;56530;42.640;23.372;2024-01-07T09:47:50;13.23;;;11.43;;
69369;SDS011;56530;42.640;23.372;2024-01-07T09:50:16;8.63;;;7.63;;
69369;SDS011;56530;42.640;23.372;2024-01-07T09:52:43;13.87;;;10.77;;
69369;SDS011;56530;42.640;23.372;2024-01-07T09:55:11;11.15;;;9.82;;
69369;SDS011;56530;42.640;23.372;2024-01-07T09:57:39;11.02;;;8.95;;
69369;SDS011;56530;42.640;23.372;2024-01-07T10:00:05;7.57;;;6.78;;
69369;SDS011;56530;42.640;23.372;2024-01-07T10:02:32;6.95;;;6.13;;
69369;SDS011;56530;42.640;23.372;2024-01-07T10:04:58;8.93;;;6.50;;
69369;SDS011;56530;42.640;23.372;2024-01-07T10:07:24;7.63;;;5.17;;
69369;SDS011;56530;42.640;23.372;2024-01-07T10:09:50;6.30;;;4.53;;
69369;SDS011;56530;42.640;23.372;2024-01-07T10:12:15;5.93;;;5.13;;
69369;SDS011;56530;42.640;23.372;2024-01-07T10:14:41;6.30;;;4.97;;
69369;SDS011;56530;42.640;23.372;2024-01-07T10:17:15;11.13;;;6.00;;
69369;SDS011;56530;42.640;23.372;2024-01-07T10:19:44;6.68;;;4.50;;
69369;SDS011;56530;42.640;23.372;2024-01-07T10:22:11;5.70;;;3.90;;
69369;SDS011;56530;42.640;23.372;2024-01-07T10:24:38;6.40;;;4.07;;
69369;SDS011;56530;42.640;23.372;2024-01-07T10:27:04;5.70;;;4.30;;
69369;SDS011;56530;42.640;23.372;2024-01-07T10:29:31;5.53;;;4.67;;
69369;SDS011;56530;42.640;23.372;2024-01-07T10:32:00;12.02;;;6.40;;
69369;SDS011;56530;42.640;23.372;2024-01-07T10:34:29;7.85;;;4.82;;
69369;SDS011;56530;42.640;23.372;2024-01-07T10:37:00;8.32;;;4.88;;
69369;SDS011;56530;42.640;23.372;2024-01-07T10:39:26;11.50;;;5.88;;
69369;SDS011;56530;42.640;23.372;2024-01-07T10:41:52;8.77;;;4.88;;
69369;SDS011;56530;42.640;23.372;2024-01-07T10:44:22;10.25;;;5.53;;
69369;SDS011;56530;42.640;23.372;2024-01-07T10:46:48;12.65;;;7.70;;
69369;SDS011;56530;42.640;23.372;2024-01-07T10:49:19;18.83;;;10.90;;
69369;SDS011;56530;42.640;23.372;2024-01-07T10:51:46;18.87;;;9.17;;
69369;SDS011;56530;42.640;23.372;2024-01-07T10:54:36;6.18;;;4.05;;
69369;SDS011;56530;42.640;23.372;2024-01-07T11:00:04;7.80;;;5.20;;
69369;SDS011;56530;42.640;23.372;2024-01-07T11:02:38;9.10;;;5.27;;
69369;SDS011;56530;42.640;23.372;2024-01-07T11:07:35;10.17;;;5.87;;
69369;SDS011;56530;42.640;23.372;2024-01-07T11:10:13;6.32;;;5.13;;
69369;SDS011;56530;42.640;23.372;2024-01-07T11:12:42;6.57;;;5.03;;
69369;SDS011;56530;42.640;23.372;2024-01-07T11:15:08;7.57;;;5.83;;
69369;SDS011;56530;42.640;23.372;2024-01-07T11:20:02;10.50;;;6.67;;
69369;SDS011;56530;42.640;23.372;2024-01-07T11:22:29;11.13;;;6.57;;
69369;SDS011;56530;42.640;23.372;2024-01-07T11:24:58;9.23;;;5.33;;
69369;SDS011;56530;42.640;23.372;2024-01-07T11:27:25;10.60;;;5.70;;
69369;SDS011;56530;42.640;23.372;2024-01-07T11:29:54;9.32;;;5.35;;
69369;SDS011;56530;42.640;23.372;2024-01-07T11:32:24;9.63;;;5.47;;
69369;SDS011;56530;42.640;23.372;2024-01-07T11:34:52;7.85;;;4.68;;
69369;SDS011;56530;42.640;23.372;2024-01-07T11:37:18;8.82;;;5.45;;
69369;SDS011;56530;42.640;23.372;2024-01-07T11:39:45;8.73;;;5.88;;
69369;SDS011;56530;42.640;23.372;2024-01-07T11:42:10;4.82;;;4.13;;
69369;SDS011;56530;42.640;23.372;2024-01-07T11:44:49;6.90;;;4.80;;
69369;SDS011;56530;42.640;23.372;2024-01-07T11:47:20;9.70;;;4.73;;
69369;SDS011;56530;42.640;23.372;2024-01-07T11:49:47;8.23;;;4.47;;
69369;SDS011;56530;42.640;23.372;2024-01-07T11:52:14;6.72;;;4.65;;
69369;SDS011;56530;42.640;23.372;2024-01-07T11:54:40;8.07;;;4.63;;
69369;SDS011;56530;42.640;23.372;2024-01-07T11:57:06;7.53;;;5.18;;
69369;SDS011;56530;42.640;23.372;2024-01-07T11:59:32;7.90;;;4.70;;
69369;SDS011;56530;42.640;23.372;2024-01-07T12:02:02;7.70;;;4.60;;
69369;SDS011;56530;42.640;23.372;2024-01-07T12:04:32;8.57;;;4.68;;
69369;SDS011;56530;42.640;23.372;2024-01-07T12:06:57;7.93;;;4.53;;
69369;SDS011;56530;42.640;23.372;2024-01-07T12:09:23;8.53;;;4.60;;
69369;SDS011;56530;42.640;23.372;2024-01-07T12:11:49;11.57;;;6.80;;
69369;SDS011;56530;42.640;23.372;2024-01-07T12:14:15;10.20;;;5.20;;
69369;SDS011;56530;42.640;23.372;2024-01-07T12:16:40;7.82;;;4.50;;
69369;SDS011;56530;42.640;23.372;2024-01-07T12:19:05;5.78;;;4.05;;
69369;SDS011;56530;42.640;23.372;2024-01-07T12:21:32;6.67;;;4.50;;
69369;SDS011;56530;42.640;23.372;2024-01-07T12:23:58;8.02;;;4.72;;
69369;SDS011;56530;42.640;23.372;2024-01-07T12:26:27;7.37;;;4.60;;
69369;SDS011;56530;42.640;23.372;2024-01-07T12:28:53;6.50;;;4.97;;
69369;SDS011;56530;42.640;23.372;2024-01-07T12:31:20;11.57;;;5.00;;
69369;SDS011;56530;42.640;23.372;2024-01-07T12:33:46;7.73;;;4.70;;
69369;SDS011;56530;42.640;23.372;2024-01-07T12:36:12;9.47;;;4.80;;
69369;SDS011;56530;42.640;23.372;2024-01-07T12:38:37;7.93;;;4.93;;
69369;SDS011;56530;42.640;23.372;2024-01-07T12:41:03;5.97;;;4.40;;
69369;SDS011;56530;42.640;23.372;2024-01-07T12:43:28;6.33;;;4.50;;
69369;SDS011;56530;42.640;23.372;2024-01-07T12:45:54;8.55;;;5.15;;
69369;SDS011;56530;42.640;23.372;2024-01-07T12:48:21;6.55;;;4.43;;
69369;SDS011;56530;42.640;23.372;2024-01-07T12:50:47;6.40;;;5.07;;
69369;SDS011;56530;42.640;23.372;2024-01-07T12:53:12;5.90;;;4.57;;
69369;SDS011;56530;42.640;23.372;2024-01-07T12:55:37;8.10;;;4.90;;
69369;SDS011;56530;42.640;23.372;2024-01-07T12:58:03;5.87;;;3.93;;
69369;SDS011;56530;42.640;23.372;2024-01-07T13:00:28;8.73;;;4.00;;
69369;SDS011;56530;42.640;23.372;2024-01-07T13:02:54;5.00;;;3.97;;
69369;SDS011;56530;42.640;23.372;2024-01-07T13:05:20;8.02;;;4.80;;
69369;SDS011;56530;42.640;23.372;2024-01-07T13:07:46;6.43;;;4.53;;
69369;SDS011;56530;42.640;23.372;2024-01-07T13:10:12;6.55;;;4.28;;
69369;SDS011;56530;42.640;23.372;2024-01-07T13:12:38;5.65;;;4.60;;
69369;SDS011;56530;42.640;23.372;2024-01-07T13:15:04;6.10;;;4.00;;
69369;SDS011;56530;42.640;23.372;2024-01-07T13:17:29;6.45;;;4.88;;
69369;SDS011;56530;42.640;23.372;2024-01-07T13:20:00;6.18;;;4.00;;
69369;SDS011;56530;42.640;23.372;2024-01-07T13:22:26;11.80;;;4.07;;
69369;SDS011;56530;42.640;23.372;2024-01-07T13:24:51;8.00;;;4.50;;
69369;SDS011;56530;42.640;23.372;2024-01-07T13:27:19;5.40;;;3.87;;
69369;SDS011;56530;42.640;23.372;2024-01-07T13:29:44;7.93;;;4.88;;
69369;SDS011;56530;42.640;23.372;2024-01-07T13:32:13;6.93;;;4.55;;
69369;SDS011;56530;42.640;23.372;2024-01-07T13:34:44;8.13;;;5.05;;
69369;SDS011;56530;42.640;23.372;2024-01-07T13:37:10;6.97;;;4.80;;
69369;SDS011;56530;42.640;23.372;2024-01-07T13:39:35;9.60;;;5.28;;
69369;SDS011;56530;42.640;23.372;2024-01-07T13:42:01;5.50;;;4.30;;
69369;SDS011;56530;42.640;23.372;2024-01-07T13:44:26;8.57;;;4.93;;
69369;SDS011;56530;42.640;23.372;2024-01-07T13:46:51;5.93;;;4.17;;
69369;SDS011;56530;42.640;23.372;2024-01-07T13:49:17;7.80;;;4.70;;
69369;SDS011;56530;42.640;23.372;2024-01-07T13:51:43;6.93;;;5.00;;
69369;SDS011;56530;42.640;23.372;2024-01-07T13:54:09;6.80;;;3.90;;
69369;SDS011;56530;42.640;23.372;2024-01-07T13:56:38;6.67;;;4.23;;
69369;SDS011;56530;42.640;23.372;2024-01-07T13:59:07;5.80;;;4.32;;
69369;SDS011;56530;42.640;23.372;2024-01-07T14:01:33;6.20;;;4.75;;
69369;SDS011;56530;42.640;23.372;2024-01-07T14:03:58;8.82;;;4.20;;
69369;SDS011;56530;42.640;23.372;2024-01-07T14:06:24;6.63;;;4.10;;
69369;SDS011;56530;42.640;23.372;2024-01-07T14:08:49;5.73;;;4.47;;
69369;SDS011;56530;42.640;23.372;2024-01-07T14:11:14;6.53;;;4.93;;
69369;SDS011;56530;42.640;23.372;2024-01-07T14:13:40;6.00;;;4.53;;
69369;SDS011;56530;42.640;23.372;2024-01-07T14:16:05;7.73;;;4.83;;
69369;SDS011;56530;42.640;23.372;2024-01-07T14:18:31;7.50;;;4.65;;
69369;SDS011;56530;42.640;23.372;2024-01-07T14:20:57;6.00;;;4.20;;
69369;SDS011;56530;42.640;23.372;2024-01-07T14:23:22;7.20;;;4.90;;
69369;SDS011;56530;42.640;23.372;2024-01-07T14:25:47;5.43;;;4.10;;
69369;SDS011;56530;42.640;23.372;2024-01-07T14:28:13;5.77;;;4.60;;
69369;SDS011;56530;42.640;23.372;2024-01-07T14:30:38;5.53;;;4.25;;